sensor_id;sensor_type;location;lat;lon;timestamp;P1;durP1;ratioP1;P2;durP2;ratioP2
17725;SDS011;8983;53.156;17.960;2022-12-07T00:01:18;18.90;;;8.90;;
17725;SDS011;8983;53.156;17.960;2022-12-07T00:03:49;18.40;;;9.47;;
17725;SDS011;8983;53.156;17.960;2022-12-07T00:06:19;20.60;;;9.83;;
17725;SDS011;8983;53.156;17.960;2022-12-07T00:08:47;18.97;;;8.67;;
17725;SDS011;8983;53.156;17.960;2022-12-07T00:11:16;21.43;;;8.93;;
17725;SDS011;8983;53.156;17.960;2022-12-07T00:13:46;16.03;;;8.50;;
17725;SDS011;8983;53.156;17.960;2022-12-07T00:16:15;18.17;;;8.93;;
17725;SDS011;8983;53.156;17.960;2022-12-07T00:18:46;16.43;;;8.73;;
17725;SDS011;8983;53.156;17.960;2022-12-07T00:21:15;23.57;;;9.33;;
17725;SDS011;8983;53.156;17.960;2022-12-07T00:23:44;19.03;;;8.10;;
17725;SDS011;8983;53.156;17.960;2022-12-07T00:26:15;15.93;;;8.33;;
17725;SDS011;8983;53.156;17.960;2022-12-07T00:28:45;20.93;;;9.13;;
17725;SDS011;8983;53.156;17.960;2022-12-07T00:31:14;15.00;;;8.53;;
17725;SDS011;8983;53.156;17.960;2022-12-07T00:33:44;16.20;;;9.40;;
17725;SDS011;8983;53.156;17.960;2022-12-07T00:36:13;16.87;;;8.43;;
17725;SDS011;8983;53.156;17.960;2022-12-07T00:38:50;17.30;;;8.63;;
17725;SDS011;8983;53.156;17.960;2022-12-07T00:41:18;19.70;;;8.70;;
17725;SDS011;8983;53.156;17.960;2022-12-07T00:43:48;17.03;;;8.17;;
17725;SDS011;8983;53.156;17.960;2022-12-07T00:46:17;14.67;;;7.93;;
17725;SDS011;8983;53.156;17.960;2022-12-07T00:48:48;19.63;;;8.17;;
17725;SDS011;8983;53.156;17.960;2022-12-07T00:51:18;11.40;;;6.60;;
17725;SDS011;8983;53.156;17.960;2022-12-07T00:53:47;15.53;;;8.20;;
17725;SDS011;8983;53.156;17.960;2022-12-07T00:56:18;14.47;;;7.97;;
17725;SDS011;8983;53.156;17.960;2022-12-07T00:58:51;12.77;;;7.40;;
17725;SDS011;8983;53.156;17.960;2022-12-07T01:01:26;18.23;;;8.87;;
17725;SDS011;8983;53.156;17.960;2022-12-07T01:03:57;13.77;;;7.33;;
17725;SDS011;8983;53.156;17.960;2022-12-07T01:06:27;13.93;;;7.87;;
17725;SDS011;8983;53.156;17.960;2022-12-07T01:08:55;10.13;;;6.37;;
17725;SDS011;8983;53.156;17.960;2022-12-07T01:11:24;12.57;;;7.17;;
17725;SDS011;8983;53.156;17.960;2022-12-07T01:13:54;11.00;;;6.70;;
17725;SDS011;8983;53.156;17.960;2022-12-07T01:16:24;9.67;;;6.17;;
17725;SDS011;8983;53.156;17.960;2022-12-07T01:18:53;10.40;;;6.47;;
17725;SDS011;8983;53.156;17.960;2022-12-07T01:21:25;9.70;;;7.00;;
17725;SDS011;8983;53.156;17.960;2022-12-07T01:23:54;12.87;;;6.50;;
17725;SDS011;8983;53.156;17.960;2022-12-07T01:26:24;11.70;;;6.73;;
17725;SDS011;8983;53.156;17.960;2022-12-07T01:28:52;9.77;;;6.57;;
17725;SDS011;8983;53.156;17.960;2022-12-07T01:31:22;12.43;;;6.40;;
17725;SDS011;8983;53.156;17.960;2022-12-07T01:33:52;10.97;;;6.70;;
17725;SDS011;8983;53.156;17.960;2022-12-07T01:36:22;13.17;;;6.40;;
17725;SDS011;8983;53.156;17.960;2022-12-07T01:38:53;13.43;;;6.73;;
17725;SDS011;8983;53.156;17.960;2022-12-07T01:41:23;12.87;;;6.60;;
17725;SDS011;8983;53.156;17.960;2022-12-07T01:46:52;10.50;;;6.40;;
17725;SDS011;8983;53.156;17.960;2022-12-07T01:49:24;9.03;;;5.70;;
17725;SDS011;8983;53.156;17.960;2022-12-07T01:52:00;10.30;;;5.63;;
17725;SDS011;8983;53.156;17.960;2022-12-07T01:54:35;13.20;;;6.50;;
17725;SDS011;8983;53.156;17.960;2022-12-07T01:57:03;11.77;;;6.60;;
17725;SDS011;8983;53.156;17.960;2022-12-07T01:59:33;12.73;;;6.67;;
17725;SDS011;8983;53.156;17.960;2022-12-07T02:02:02;12.93;;;6.33;;
17725;SDS011;8983;53.156;17.960;2022-12-07T02:04:35;13.50;;;7.20;;
17725;SDS011;8983;53.156;17.960;2022-12-07T02:07:04;11.97;;;6.67;;
17725;SDS011;8983;53.156;17.960;2022-12-07T02:09:33;11.50;;;6.63;;
17725;SDS011;8983;53.156;17.960;2022-12-07T02:12:01;12.63;;;6.93;;
17725;SDS011;8983;53.156;17.960;2022-12-07T02:14:29;11.70;;;6.10;;
17725;SDS011;8983;53.156;17.960;2022-12-07T02:17:01;13.70;;;7.00;;
17725;SDS011;8983;53.156;17.960;2022-12-07T02:22:42;20.43;;;10.97;;
17725;SDS011;8983;53.156;17.960;2022-12-07T02:25:52;27.57;;;14.23;;
17725;SDS011;8983;53.156;17.960;2022-12-07T02:28:46;28.80;;;13.03;;
17725;SDS011;8983;53.156;17.960;2022-12-07T02:31:21;14.33;;;7.03;;
17725;SDS011;8983;53.156;17.960;2022-12-07T02:33:54;13.03;;;7.53;;
17725;SDS011;8983;53.156;17.960;2022-12-07T02:36:30;17.10;;;7.23;;
17725;SDS011;8983;53.156;17.960;2022-12-07T02:39:02;13.13;;;7.23;;
17725;SDS011;8983;53.156;17.960;2022-12-07T02:41:36;18.27;;;7.93;;
17725;SDS011;8983;53.156;17.960;2022-12-07T02:44:11;15.87;;;8.10;;
17725;SDS011;8983;53.156;17.960;2022-12-07T02:46:44;14.40;;;8.17;;
17725;SDS011;8983;53.156;17.960;2022-12-07T02:49:16;14.77;;;8.03;;
17725;SDS011;8983;53.156;17.960;2022-12-07T02:51:46;20.83;;;11.90;;
17725;SDS011;8983;53.156;17.960;2022-12-07T02:54:15;33.13;;;20.60;;
17725;SDS011;8983;53.156;17.960;2022-12-07T02:56:45;16.43;;;8.37;;
17725;SDS011;8983;53.156;17.960;2022-12-07T02:59:20;14.27;;;7.37;;
17725;SDS011;8983;53.156;17.960;2022-12-07T03:01:58;12.53;;;7.70;;
17725;SDS011;8983;53.156;17.960;2022-12-07T03:04:38;12.87;;;8.40;;
17725;SDS011;8983;53.156;17.960;2022-12-07T03:07:14;13.27;;;7.27;;
17725;SDS011;8983;53.156;17.960;2022-12-07T03:09:52;15.87;;;7.87;;
17725;SDS011;8983;53.156;17.960;2022-12-07T03:12:28;11.83;;;7.77;;
17725;SDS011;8983;53.156;17.960;2022-12-07T03:15:02;13.43;;;8.07;;
17725;SDS011;8983;53.156;17.960;2022-12-07T03:17:34;11.43;;;7.87;;
17725;SDS011;8983;53.156;17.960;2022-12-07T03:20:07;14.37;;;8.47;;
17725;SDS011;8983;53.156;17.960;2022-12-07T03:22:38;11.37;;;6.40;;
17725;SDS011;8983;53.156;17.960;2022-12-07T03:25:08;12.67;;;7.57;;
17725;SDS011;8983;53.156;17.960;2022-12-07T03:27:41;12.20;;;7.10;;
17725;SDS011;8983;53.156;17.960;2022-12-07T03:30:17;11.47;;;6.33;;
17725;SDS011;8983;53.156;17.960;2022-12-07T03:32:48;9.17;;;5.93;;
17725;SDS011;8983;53.156;17.960;2022-12-07T03:35:21;10.20;;;6.67;;
17725;SDS011;8983;53.156;17.960;2022-12-07T03:37:53;9.00;;;6.00;;
17725;SDS011;8983;53.156;17.960;2022-12-07T03:40:26;8.20;;;5.97;;
17725;SDS011;8983;53.156;17.960;2022-12-07T03:42:57;10.40;;;6.67;;
17725;SDS011;8983;53.156;17.960;2022-12-07T03:45:31;11.20;;;6.10;;
17725;SDS011;8983;53.156;17.960;2022-12-07T03:48:05;11.23;;;5.97;;
17725;SDS011;8983;53.156;17.960;2022-12-07T03:50:38;7.60;;;5.30;;
17725;SDS011;8983;53.156;17.960;2022-12-07T03:53:13;11.30;;;5.90;;
17725;SDS011;8983;53.156;17.960;2022-12-07T03:55:45;9.53;;;6.20;;
17725;SDS011;8983;53.156;17.960;2022-12-07T03:58:16;10.27;;;6.03;;
17725;SDS011;8983;53.156;17.960;2022-12-07T04:00:48;9.63;;;6.37;;
17725;SDS011;8983;53.156;17.960;2022-12-07T04:03:16;8.00;;;5.50;;
17725;SDS011;8983;53.156;17.960;2022-12-07T04:05:44;7.67;;;5.53;;
17725;SDS011;8983;53.156;17.960;2022-12-07T04:08:13;12.00;;;6.20;;
17725;SDS011;8983;53.156;17.960;2022-12-07T04:10:41;10.20;;;6.10;;
17725;SDS011;8983;53.156;17.960;2022-12-07T04:13:09;13.00;;;6.40;;
17725;SDS011;8983;53.156;17.960;2022-12-07T04:15:37;10.23;;;5.77;;
17725;SDS011;8983;53.156;17.960;2022-12-07T04:18:06;13.63;;;7.30;;
17725;SDS011;8983;53.156;17.960;2022-12-07T04:20:34;11.63;;;7.13;;
17725;SDS011;8983;53.156;17.960;2022-12-07T04:23:02;11.33;;;7.20;;
17725;SDS011;8983;53.156;17.960;2022-12-07T04:25:30;13.00;;;7.57;;
17725;SDS011;8983;53.156;17.960;2022-12-07T04:27:58;10.73;;;7.00;;
17725;SDS011;8983;53.156;17.960;2022-12-07T04:30:26;12.63;;;7.60;;
17725;SDS011;8983;53.156;17.960;2022-12-07T04:32:53;14.00;;;8.77;;
17725;SDS011;8983;53.156;17.960;2022-12-07T04:35:23;15.93;;;9.23;;
17725;SDS011;8983;53.156;17.960;2022-12-07T04:37:51;14.93;;;8.60;;
17725;SDS011;8983;53.156;17.960;2022-12-07T04:40:18;14.87;;;9.33;;
17725;SDS011;8983;53.156;17.960;2022-12-07T04:42:46;15.23;;;8.47;;
17725;SDS011;8983;53.156;17.960;2022-12-07T04:45:14;15.97;;;9.20;;
17725;SDS011;8983;53.156;17.960;2022-12-07T04:47:42;12.03;;;7.90;;
17725;SDS011;8983;53.156;17.960;2022-12-07T04:50:10;14.07;;;8.30;;
17725;SDS011;8983;53.156;17.960;2022-12-07T04:52:40;11.07;;;7.77;;
17725;SDS011;8983;53.156;17.960;2022-12-07T04:55:08;13.73;;;8.97;;
17725;SDS011;8983;53.156;17.960;2022-12-07T04:57:36;12.27;;;7.87;;
17725;SDS011;8983;53.156;17.960;2022-12-07T05:00:04;14.57;;;8.33;;
17725;SDS011;8983;53.156;17.960;2022-12-07T05:02:33;12.63;;;8.23;;
17725;SDS011;8983;53.156;17.960;2022-12-07T05:05:01;12.93;;;7.20;;
17725;SDS011;8983;53.156;17.960;2022-12-07T05:07:29;12.53;;;7.63;;
17725;SDS011;8983;53.156;17.960;2022-12-07T05:09:59;10.73;;;6.60;;
17725;SDS011;8983;53.156;17.960;2022-12-07T05:12:28;10.20;;;6.57;;
17725;SDS011;8983;53.156;17.960;2022-12-07T05:14:56;9.57;;;6.57;;
17725;SDS011;8983;53.156;17.960;2022-12-07T05:17:24;11.07;;;6.77;;
17725;SDS011;8983;53.156;17.960;2022-12-07T05:19:52;9.73;;;6.83;;
17725;SDS011;8983;53.156;17.960;2022-12-07T05:22:19;11.70;;;7.27;;
17725;SDS011;8983;53.156;17.960;2022-12-07T05:24:47;9.97;;;7.20;;
17725;SDS011;8983;53.156;17.960;2022-12-07T05:27:17;12.70;;;7.17;;
17725;SDS011;8983;53.156;17.960;2022-12-07T05:29:45;13.23;;;7.77;;
17725;SDS011;8983;53.156;17.960;2022-12-07T05:32:13;10.03;;;6.57;;
17725;SDS011;8983;53.156;17.960;2022-12-07T05:34:40;10.37;;;6.93;;
17725;SDS011;8983;53.156;17.960;2022-12-07T05:37:08;9.10;;;6.07;;
17725;SDS011;8983;53.156;17.960;2022-12-07T05:39:36;10.63;;;6.90;;
17725;SDS011;8983;53.156;17.960;2022-12-07T05:42:07;11.70;;;6.50;;
17725;SDS011;8983;53.156;17.960;2022-12-07T05:44:41;15.47;;;6.67;;
17725;SDS011;8983;53.156;17.960;2022-12-07T05:47:10;15.60;;;7.60;;
17725;SDS011;8983;53.156;17.960;2022-12-07T05:49:39;18.90;;;8.10;;
17725;SDS011;8983;53.156;17.960;2022-12-07T05:52:07;19.07;;;8.33;;
17725;SDS011;8983;53.156;17.960;2022-12-07T05:54:35;15.17;;;7.33;;
17725;SDS011;8983;53.156;17.960;2022-12-07T05:57:03;17.83;;;8.40;;
17725;SDS011;8983;53.156;17.960;2022-12-07T05:59:31;19.83;;;7.87;;
17725;SDS011;8983;53.156;17.960;2022-12-07T06:02:00;19.07;;;8.40;;
17725;SDS011;8983;53.156;17.960;2022-12-07T06:04:31;13.37;;;7.93;;
17725;SDS011;8983;53.156;17.960;2022-12-07T06:07:00;17.27;;;7.77;;
17725;SDS011;8983;53.156;17.960;2022-12-07T06:09:29;18.93;;;8.73;;
17725;SDS011;8983;53.156;17.960;2022-12-07T06:12:00;16.47;;;8.13;;
17725;SDS011;8983;53.156;17.960;2022-12-07T06:14:56;18.17;;;8.90;;
17725;SDS011;8983;53.156;17.960;2022-12-07T06:17:46;17.80;;;8.80;;
17725;SDS011;8983;53.156;17.960;2022-12-07T06:20:14;18.50;;;9.27;;
17725;SDS011;8983;53.156;17.960;2022-12-07T06:22:42;17.97;;;9.30;;
17725;SDS011;8983;53.156;17.960;2022-12-07T06:25:10;21.23;;;10.60;;
17725;SDS011;8983;53.156;17.960;2022-12-07T06:27:38;21.30;;;9.50;;
17725;SDS011;8983;53.156;17.960;2022-12-07T06:30:06;19.50;;;9.40;;
17725;SDS011;8983;53.156;17.960;2022-12-07T06:32:36;21.07;;;9.77;;
17725;SDS011;8983;53.156;17.960;2022-12-07T06:35:06;15.70;;;8.30;;
17725;SDS011;8983;53.156;17.960;2022-12-07T06:37:34;15.90;;;8.30;;
17725;SDS011;8983;53.156;17.960;2022-12-07T06:40:02;14.50;;;8.07;;
17725;SDS011;8983;53.156;17.960;2022-12-07T06:42:31;18.37;;;8.37;;
17725;SDS011;8983;53.156;17.960;2022-12-07T06:44:59;21.50;;;10.20;;
17725;SDS011;8983;53.156;17.960;2022-12-07T06:47:27;18.93;;;9.20;;
17725;SDS011;8983;53.156;17.960;2022-12-07T06:50:13;22.03;;;10.27;;
17725;SDS011;8983;53.156;17.960;2022-12-07T06:52:41;19.17;;;9.60;;
17725;SDS011;8983;53.156;17.960;2022-12-07T06:55:09;19.40;;;9.70;;
17725;SDS011;8983;53.156;17.960;2022-12-07T06:57:37;22.93;;;9.30;;
17725;SDS011;8983;53.156;17.960;2022-12-07T07:00:05;24.00;;;10.43;;
17725;SDS011;8983;53.156;17.960;2022-12-07T07:02:34;19.87;;;10.30;;
17725;SDS011;8983;53.156;17.960;2022-12-07T07:05:02;20.37;;;11.47;;
17725;SDS011;8983;53.156;17.960;2022-12-07T07:07:32;18.33;;;9.77;;
17725;SDS011;8983;53.156;17.960;2022-12-07T07:10:20;21.80;;;10.87;;
17725;SDS011;8983;53.156;17.960;2022-12-07T07:12:48;22.10;;;10.63;;
17725;SDS011;8983;53.156;17.960;2022-12-07T07:15:22;21.97;;;11.13;;
17725;SDS011;8983;53.156;17.960;2022-12-07T07:17:50;22.50;;;10.40;;
17725;SDS011;8983;53.156;17.960;2022-12-07T07:20:18;25.10;;;10.53;;
17725;SDS011;8983;53.156;17.960;2022-12-07T07:22:47;19.87;;;10.57;;
17725;SDS011;8983;53.156;17.960;2022-12-07T07:25:15;24.97;;;11.30;;
17725;SDS011;8983;53.156;17.960;2022-12-07T07:27:43;25.83;;;11.20;;
17725;SDS011;8983;53.156;17.960;2022-12-07T07:30:12;18.67;;;9.93;;
17725;SDS011;8983;53.156;17.960;2022-12-07T07:32:40;19.10;;;9.93;;
17725;SDS011;8983;53.156;17.960;2022-12-07T07:35:08;18.00;;;10.77;;
17725;SDS011;8983;53.156;17.960;2022-12-07T07:37:36;20.07;;;9.83;;
17725;SDS011;8983;53.156;17.960;2022-12-07T07:40:06;20.90;;;10.10;;
17725;SDS011;8983;53.156;17.960;2022-12-07T07:42:35;25.33;;;10.17;;
17725;SDS011;8983;53.156;17.960;2022-12-07T07:45:03;24.03;;;10.43;;
17725;SDS011;8983;53.156;17.960;2022-12-07T07:47:32;23.83;;;10.63;;
17725;SDS011;8983;53.156;17.960;2022-12-07T07:49:59;26.93;;;12.53;;
17725;SDS011;8983;53.156;17.960;2022-12-07T07:52:28;25.13;;;12.07;;
17725;SDS011;8983;53.156;17.960;2022-12-07T07:54:56;26.13;;;11.57;;
17725;SDS011;8983;53.156;17.960;2022-12-07T07:57:25;28.70;;;11.37;;
17725;SDS011;8983;53.156;17.960;2022-12-07T07:59:53;19.20;;;11.07;;
17725;SDS011;8983;53.156;17.960;2022-12-07T08:02:21;22.33;;;10.10;;
17725;SDS011;8983;53.156;17.960;2022-12-07T08:04:49;19.70;;;10.90;;
17725;SDS011;8983;53.156;17.960;2022-12-07T08:07:17;17.40;;;9.10;;
17725;SDS011;8983;53.156;17.960;2022-12-07T08:09:45;20.97;;;10.77;;
17725;SDS011;8983;53.156;17.960;2022-12-07T08:12:13;21.67;;;9.97;;
17725;SDS011;8983;53.156;17.960;2022-12-07T08:14:42;20.63;;;10.70;;
17725;SDS011;8983;53.156;17.960;2022-12-07T08:17:10;21.13;;;10.70;;
17725;SDS011;8983;53.156;17.960;2022-12-07T08:19:38;23.70;;;10.30;;
17725;SDS011;8983;53.156;17.960;2022-12-07T08:22:06;21.40;;;10.23;;
17725;SDS011;8983;53.156;17.960;2022-12-07T08:24:34;20.63;;;10.17;;
17725;SDS011;8983;53.156;17.960;2022-12-07T08:27:03;16.90;;;9.33;;
17725;SDS011;8983;53.156;17.960;2022-12-07T08:29:31;19.57;;;10.17;;
17725;SDS011;8983;53.156;17.960;2022-12-07T08:32:00;19.40;;;10.13;;
17725;SDS011;8983;53.156;17.960;2022-12-07T08:34:34;21.53;;;11.03;;
17725;SDS011;8983;53.156;17.960;2022-12-07T08:37:03;23.23;;;11.70;;
17725;SDS011;8983;53.156;17.960;2022-12-07T08:39:31;27.47;;;11.83;;
17725;SDS011;8983;53.156;17.960;2022-12-07T08:41:58;22.27;;;10.63;;
17725;SDS011;8983;53.156;17.960;2022-12-07T08:44:26;19.53;;;10.37;;
17725;SDS011;8983;53.156;17.960;2022-12-07T08:46:56;20.23;;;11.03;;
17725;SDS011;8983;53.156;17.960;2022-12-07T08:49:30;18.00;;;9.93;;
17725;SDS011;8983;53.156;17.960;2022-12-07T08:52:01;19.20;;;10.27;;
17725;SDS011;8983;53.156;17.960;2022-12-07T08:54:32;20.00;;;10.30;;
17725;SDS011;8983;53.156;17.960;2022-12-07T08:57:02;18.73;;;9.63;;
17725;SDS011;8983;53.156;17.960;2022-12-07T08:59:32;17.17;;;9.07;;
17725;SDS011;8983;53.156;17.960;2022-12-07T09:02:03;16.17;;;8.97;;
17725;SDS011;8983;53.156;17.960;2022-12-07T09:04:31;14.47;;;7.73;;
17725;SDS011;8983;53.156;17.960;2022-12-07T09:06:59;16.57;;;9.87;;
17725;SDS011;8983;53.156;17.960;2022-12-07T09:09:27;15.37;;;8.97;;
17725;SDS011;8983;53.156;17.960;2022-12-07T09:11:55;14.60;;;8.33;;
17725;SDS011;8983;53.156;17.960;2022-12-07T09:14:23;13.20;;;7.80;;
17725;SDS011;8983;53.156;17.960;2022-12-07T09:16:51;15.07;;;8.97;;
17725;SDS011;8983;53.156;17.960;2022-12-07T09:19:21;15.90;;;8.87;;
17725;SDS011;8983;53.156;17.960;2022-12-07T09:21:49;16.30;;;9.07;;
17725;SDS011;8983;53.156;17.960;2022-12-07T09:24:16;13.77;;;8.17;;
17725;SDS011;8983;53.156;17.960;2022-12-07T09:26:44;16.57;;;9.07;;
17725;SDS011;8983;53.156;17.960;2022-12-07T09:29:12;14.87;;;8.60;;
17725;SDS011;8983;53.156;17.960;2022-12-07T09:31:40;16.87;;;9.17;;
17725;SDS011;8983;53.156;17.960;2022-12-07T09:34:08;14.83;;;8.47;;
17725;SDS011;8983;53.156;17.960;2022-12-07T09:36:38;64.80;;;26.00;;
17725;SDS011;8983;53.156;17.960;2022-12-07T09:39:05;59.13;;;23.93;;
17725;SDS011;8983;53.156;17.960;2022-12-07T09:41:33;30.97;;;17.87;;
17725;SDS011;8983;53.156;17.960;2022-12-07T09:44:06;15.30;;;9.70;;
17725;SDS011;8983;53.156;17.960;2022-12-07T09:46:38;19.00;;;12.37;;
17725;SDS011;8983;53.156;17.960;2022-12-07T09:49:09;14.57;;;8.60;;
17725;SDS011;8983;53.156;17.960;2022-12-07T09:51:42;15.77;;;8.60;;
17725;SDS011;8983;53.156;17.960;2022-12-07T09:54:11;14.07;;;8.83;;
17725;SDS011;8983;53.156;17.960;2022-12-07T09:56:41;18.17;;;9.80;;
17725;SDS011;8983;53.156;17.960;2022-12-07T09:59:12;14.73;;;8.20;;
17725;SDS011;8983;53.156;17.960;2022-12-07T10:01:43;16.43;;;9.97;;
17725;SDS011;8983;53.156;17.960;2022-12-07T10:04:14;12.90;;;8.67;;
17725;SDS011;8983;53.156;17.960;2022-12-07T10:06:45;13.00;;;8.63;;
17725;SDS011;8983;53.156;17.960;2022-12-07T10:09:14;11.80;;;7.70;;
17725;SDS011;8983;53.156;17.960;2022-12-07T10:12:00;14.40;;;8.83;;
17725;SDS011;8983;53.156;17.960;2022-12-07T10:14:30;12.50;;;8.23;;
17725;SDS011;8983;53.156;17.960;2022-12-07T10:17:30;15.93;;;9.70;;
17725;SDS011;8983;53.156;17.960;2022-12-07T10:20:18;14.87;;;9.70;;
17725;SDS011;8983;53.156;17.960;2022-12-07T10:22:55;14.83;;;9.80;;
17725;SDS011;8983;53.156;17.960;2022-12-07T10:25:26;15.13;;;9.10;;
17725;SDS011;8983;53.156;17.960;2022-12-07T10:28:02;13.27;;;8.97;;
17725;SDS011;8983;53.156;17.960;2022-12-07T10:30:45;16.27;;;8.97;;
17725;SDS011;8983;53.156;17.960;2022-12-07T10:33:26;12.47;;;8.57;;
17725;SDS011;8983;53.156;17.960;2022-12-07T10:35:56;14.83;;;9.03;;
17725;SDS011;8983;53.156;17.960;2022-12-07T10:38:27;13.90;;;9.30;;
17725;SDS011;8983;53.156;17.960;2022-12-07T10:41:03;15.73;;;8.83;;
17725;SDS011;8983;53.156;17.960;2022-12-07T10:43:32;13.97;;;8.83;;
17725;SDS011;8983;53.156;17.960;2022-12-07T10:46:07;14.13;;;8.93;;
17725;SDS011;8983;53.156;17.960;2022-12-07T10:48:49;15.00;;;8.90;;
17725;SDS011;8983;53.156;17.960;2022-12-07T10:51:30;13.90;;;9.10;;
17725;SDS011;8983;53.156;17.960;2022-12-07T10:54:10;14.43;;;8.90;;
17725;SDS011;8983;53.156;17.960;2022-12-07T10:56:47;13.50;;;9.10;;
17725;SDS011;8983;53.156;17.960;2022-12-07T10:59:48;14.77;;;9.00;;
17725;SDS011;8983;53.156;17.960;2022-12-07T11:05:43;13.83;;;9.13;;
17725;SDS011;8983;53.156;17.960;2022-12-07T11:08:18;13.93;;;9.30;;
17725;SDS011;8983;53.156;17.960;2022-12-07T11:10:54;13.80;;;8.67;;
17725;SDS011;8983;53.156;17.960;2022-12-07T11:13:28;12.20;;;8.37;;
17725;SDS011;8983;53.156;17.960;2022-12-07T11:16:14;13.77;;;8.73;;
17725;SDS011;8983;53.156;17.960;2022-12-07T11:18:51;12.93;;;8.43;;
17725;SDS011;8983;53.156;17.960;2022-12-07T11:21:29;15.03;;;9.40;;
17725;SDS011;8983;53.156;17.960;2022-12-07T11:24:04;14.00;;;7.93;;
17725;SDS011;8983;53.156;17.960;2022-12-07T11:26:45;13.77;;;8.13;;
17725;SDS011;8983;53.156;17.960;2022-12-07T11:29:30;10.77;;;8.27;;
17725;SDS011;8983;53.156;17.960;2022-12-07T11:32:11;7.07;;;5.30;;
17725;SDS011;8983;53.156;17.960;2022-12-07T11:34:47;10.90;;;7.27;;
17725;SDS011;8983;53.156;17.960;2022-12-07T11:37:25;9.83;;;7.00;;
17725;SDS011;8983;53.156;17.960;2022-12-07T11:40:05;10.47;;;6.93;;
17725;SDS011;8983;53.156;17.960;2022-12-07T11:42:46;12.00;;;7.20;;
17725;SDS011;8983;53.156;17.960;2022-12-07T11:45:19;10.93;;;7.07;;
17725;SDS011;8983;53.156;17.960;2022-12-07T11:47:51;10.73;;;7.23;;
17725;SDS011;8983;53.156;17.960;2022-12-07T11:50:26;10.27;;;7.17;;
17725;SDS011;8983;53.156;17.960;2022-12-07T11:53:01;9.93;;;6.40;;
17725;SDS011;8983;53.156;17.960;2022-12-07T11:55:38;12.03;;;7.07;;
17725;SDS011;8983;53.156;17.960;2022-12-07T11:58:29;11.27;;;7.03;;
17725;SDS011;8983;53.156;17.960;2022-12-07T12:01:08;12.97;;;6.73;;
17725;SDS011;8983;53.156;17.960;2022-12-07T12:03:43;12.23;;;7.83;;
17725;SDS011;8983;53.156;17.960;2022-12-07T12:06:18;9.50;;;6.83;;
17725;SDS011;8983;53.156;17.960;2022-12-07T12:08:48;12.20;;;7.40;;
17725;SDS011;8983;53.156;17.960;2022-12-07T12:11:49;10.70;;;6.70;;
17725;SDS011;8983;53.156;17.960;2022-12-07T12:14:59;10.10;;;6.63;;
17725;SDS011;8983;53.156;17.960;2022-12-07T12:17:43;9.30;;;6.07;;
17725;SDS011;8983;53.156;17.960;2022-12-07T12:20:24;7.77;;;5.73;;
17725;SDS011;8983;53.156;17.960;2022-12-07T12:22:55;9.53;;;6.60;;
17725;SDS011;8983;53.156;17.960;2022-12-07T12:25:27;10.80;;;6.50;;
17725;SDS011;8983;53.156;17.960;2022-12-07T12:27:58;13.77;;;7.60;;
17725;SDS011;8983;53.156;17.960;2022-12-07T12:30:33;11.97;;;7.63;;
17725;SDS011;8983;53.156;17.960;2022-12-07T12:33:06;13.47;;;7.63;;
17725;SDS011;8983;53.156;17.960;2022-12-07T12:35:42;12.00;;;7.40;;
17725;SDS011;8983;53.156;17.960;2022-12-07T12:38:25;13.10;;;7.30;;
17725;SDS011;8983;53.156;17.960;2022-12-07T12:40:55;12.20;;;7.07;;
17725;SDS011;8983;53.156;17.960;2022-12-07T12:55:29;15.60;;;9.17;;
17725;SDS011;8983;53.156;17.960;2022-12-07T12:58:28;18.83;;;9.83;;
17725;SDS011;8983;53.156;17.960;2022-12-07T13:13:30;9.17;;;6.67;;
17725;SDS011;8983;53.156;17.960;2022-12-07T13:22:39;11.80;;;6.37;;
17725;SDS011;8983;53.156;17.960;2022-12-07T13:25:11;11.40;;;7.67;;
17725;SDS011;8983;53.156;17.960;2022-12-07T13:27:47;10.77;;;6.70;;
17725;SDS011;8983;53.156;17.960;2022-12-07T13:30:22;14.70;;;6.93;;
17725;SDS011;8983;53.156;17.960;2022-12-07T13:32:51;11.17;;;7.47;;
17725;SDS011;8983;53.156;17.960;2022-12-07T13:35:27;13.17;;;6.90;;
17725;SDS011;8983;53.156;17.960;2022-12-07T13:38:02;11.77;;;7.67;;
17725;SDS011;8983;53.156;17.960;2022-12-07T13:40:33;12.33;;;7.87;;
17725;SDS011;8983;53.156;17.960;2022-12-07T13:43:02;13.93;;;9.07;;
17725;SDS011;8983;53.156;17.960;2022-12-07T13:45:32;14.07;;;7.83;;
17725;SDS011;8983;53.156;17.960;2022-12-07T13:48:24;11.80;;;7.60;;
17725;SDS011;8983;53.156;17.960;2022-12-07T13:51:00;10.73;;;6.77;;
17725;SDS011;8983;53.156;17.960;2022-12-07T13:53:31;12.77;;;7.63;;
17725;SDS011;8983;53.156;17.960;2022-12-07T13:56:00;10.93;;;7.40;;
17725;SDS011;8983;53.156;17.960;2022-12-07T13:58:30;12.30;;;7.80;;
17725;SDS011;8983;53.156;17.960;2022-12-07T14:01:00;11.87;;;6.80;;
17725;SDS011;8983;53.156;17.960;2022-12-07T14:03:30;8.97;;;6.63;;
17725;SDS011;8983;53.156;17.960;2022-12-07T14:06:03;13.00;;;6.90;;
17725;SDS011;8983;53.156;17.960;2022-12-07T14:08:35;11.47;;;6.40;;
17725;SDS011;8983;53.156;17.960;2022-12-07T14:11:03;10.47;;;6.57;;
17725;SDS011;8983;53.156;17.960;2022-12-07T14:13:32;11.83;;;7.60;;
17725;SDS011;8983;53.156;17.960;2022-12-07T14:16:02;11.40;;;6.73;;
17725;SDS011;8983;53.156;17.960;2022-12-07T14:18:36;12.17;;;7.50;;
17725;SDS011;8983;53.156;17.960;2022-12-07T14:21:05;14.37;;;6.27;;
17725;SDS011;8983;53.156;17.960;2022-12-07T14:23:43;13.07;;;7.67;;
17725;SDS011;8983;53.156;17.960;2022-12-07T14:26:12;10.67;;;6.60;;
17725;SDS011;8983;53.156;17.960;2022-12-07T14:28:42;13.93;;;8.03;;
17725;SDS011;8983;53.156;17.960;2022-12-07T14:31:11;12.17;;;7.63;;
17725;SDS011;8983;53.156;17.960;2022-12-07T14:33:51;10.87;;;6.93;;
17725;SDS011;8983;53.156;17.960;2022-12-07T14:36:19;12.10;;;7.67;;
17725;SDS011;8983;53.156;17.960;2022-12-07T14:38:48;13.87;;;7.80;;
17725;SDS011;8983;53.156;17.960;2022-12-07T14:41:19;10.67;;;7.53;;
17725;SDS011;8983;53.156;17.960;2022-12-07T14:44:08;13.13;;;8.03;;
17725;SDS011;8983;53.156;17.960;2022-12-07T14:46:58;11.43;;;7.27;;
17725;SDS011;8983;53.156;17.960;2022-12-07T14:49:46;14.57;;;8.57;;
17725;SDS011;8983;53.156;17.960;2022-12-07T14:52:15;15.70;;;8.93;;
17725;SDS011;8983;53.156;17.960;2022-12-07T14:55:11;13.87;;;8.17;;
17725;SDS011;8983;53.156;17.960;2022-12-07T14:57:41;15.70;;;9.93;;
17725;SDS011;8983;53.156;17.960;2022-12-07T15:00:13;13.37;;;8.00;;
17725;SDS011;8983;53.156;17.960;2022-12-07T15:02:42;15.70;;;8.17;;
17725;SDS011;8983;53.156;17.960;2022-12-07T15:05:11;13.37;;;9.07;;
17725;SDS011;8983;53.156;17.960;2022-12-07T15:07:42;14.37;;;8.93;;
17725;SDS011;8983;53.156;17.960;2022-12-07T15:10:14;14.43;;;8.77;;
17725;SDS011;8983;53.156;17.960;2022-12-07T15:12:49;15.83;;;9.07;;
17725;SDS011;8983;53.156;17.960;2022-12-07T15:15:17;17.00;;;9.67;;
17725;SDS011;8983;53.156;17.960;2022-12-07T15:17:45;19.03;;;10.87;;
17725;SDS011;8983;53.156;17.960;2022-12-07T15:20:13;13.40;;;8.97;;
17725;SDS011;8983;53.156;17.960;2022-12-07T15:22:43;18.80;;;10.57;;
17725;SDS011;8983;53.156;17.960;2022-12-07T15:25:13;19.10;;;11.30;;
17725;SDS011;8983;53.156;17.960;2022-12-07T15:27:41;18.03;;;10.83;;
17725;SDS011;8983;53.156;17.960;2022-12-07T15:30:09;19.27;;;11.47;;
17725;SDS011;8983;53.156;17.960;2022-12-07T15:32:38;21.23;;;12.13;;
17725;SDS011;8983;53.156;17.960;2022-12-07T15:35:06;17.73;;;11.53;;
17725;SDS011;8983;53.156;17.960;2022-12-07T15:37:34;19.93;;;10.93;;
17725;SDS011;8983;53.156;17.960;2022-12-07T15:40:03;22.53;;;11.23;;
17725;SDS011;8983;53.156;17.960;2022-12-07T15:42:34;21.40;;;11.77;;